Latest Weather Observations for Hervey Bay

IDQ60801

Issued at 4:21 am EST Thursday 18 October 2018 (issued every 10 minutes, with the page automatically refreshed every 10 minutes)

About weather observations | Map of weather stations | Latest weather observations for QLD | Other Formats
Station Details ID: 040405 Name: HERVEY BAY AIRPORT Lat: -25.32 Lon: 152.88 Height: 12.98 m
Data from the previous 72 hours. | See also: Recent months at Hervey Bay
Date/Time
EST
Temp
°C
App
Temp
°C
Dew
Point
°C
Rel
Hum
%
Delta-T
°C
Wind Press
QNH
hPa
Press
MSL
hPa
Rain since
9am
mm
Dir  Spd
km/h
Gust
km/h
Spd
kts
Gust
kts
18/04:00am 20.1 21.6 18.1 88 1.2 SSE 7 9 4 5 1015.1 1015.0 0.0
18/03:30am 20.6 21.6 18.7 89 1.2 ESE 11 17 6 9 1014.9 1014.8 0.0
18/03:00am 19.7 21.6 18.5 93 0.7 SSE 6 9 3 5 1015.2 1015.1 0.0
18/02:30am 19.5 21.1 18.3 93 0.7 S 7 9 4 5 1015.3 1015.2 0.0
18/02:17am 19.8 21.5 18.6 93 0.7 SSW 7 9 4 5 1015.3 1015.2 0.0
18/02:05am 19.8 22.5 18.6 93 0.7 WSW 2 7 1 4 1015.5 1015.4 0.0
18/02:00am 19.7 22.7 18.5 93 0.7 CALM 0 0 0 0 1015.5 1015.4 0.0
18/01:30am 19.8 21.5 18.6 93 0.7 SSW 7 9 4 5 1015.5 1015.4 0.0
18/01:00am 19.7 21.3 18.2 91 0.9 SSW 7 9 4 5 1015.4 1015.3 0.0
18/12:30am 20.1 21.7 18.2 89 1.2 SSE 7 9 4 5 1015.6 1015.5 0.0
18/12:00am 20.7 22.5 18.3 86 1.5 SSE 6 9 3 5 1015.7 1015.6 0.0
 
Date/Time
EST
Temp
°C
App
Temp
°C
Dew
Point
°C
Rel
Hum
%
Delta-T
°C
Wind Press
QNH
hPa
Press
MSL
hPa
Rain since
9am
mm
Dir  Spd
km/h
Gust
km/h
Spd
kts
Gust
kts
17/11:30pm 21.3 22.6 18.5 84 1.8 SE 9 13 5 7 1015.8 1015.7 0.0
17/11:00pm 21.5 22.8 18.5 83 1.9 ESE 9 13 5 7 1015.9 1015.8 0.0
17/10:30pm 21.6 23.0 18.6 83 1.9 ESE 9 15 5 8 1016.0 1015.9 0.0
17/10:13pm 21.9 22.3 18.9 83 1.9 E 15 19 8 10 1016.1 1016.0 0.0
17/10:00pm 22.1 22.6 19.3 84 1.8 ESE 15 22 8 12 1016.3 1016.2 0.0
17/09:49pm 21.1 23.1 18.7 86 1.5 SSE 6 7 3 4 1016.3 1016.2 0.0
17/09:30pm 21.3 23.3 18.7 85 1.6 SE 6 9 3 5 1016.1 1016.0 0.0
17/09:00pm 21.8 23.0 19.0 84 1.8 SE 11 17 6 9 1016.0 1015.9 0.0
17/08:30pm 21.6 23.0 18.6 83 1.9 SE 9 15 5 8 1015.8 1015.7 0.0
17/08:00pm 21.8 22.5 18.8 83 1.9 ESE 13 19 7 10 1015.1 1015.0 0.0
17/07:42pm 21.8 23.0 19.0 84 1.8 SE 11 15 6 8 1014.7 1014.6 0.0
17/07:30pm 21.8 23.0 19.0 84 1.8 SE 11 19 6 10 1014.6 1014.5 0.0
17/07:25pm 21.9 22.6 18.9 83 1.9 SE 13 19 7 10 1014.6 1014.5 0.0
17/07:00pm 21.8 22.1 18.8 83 1.9 SE 15 20 8 11 1014.3 1014.2 0.0
17/06:30pm 22.0 22.1 18.4 80 2.3 SE 15 24 8 13 1014.1 1014.0 0.0
17/06:00pm 22.4 22.0 18.0 76 2.7 SE 17 24 9 13 1014.1 1014.0 0.0
17/05:30pm 23.0 22.5 17.9 73 3.2 SE 17 24 9 13 1014.1 1014.0 0.0
17/05:00pm 23.3 22.5 18.0 72 3.3 SE 19 24 10 13 1014.0 1013.9 0.0
17/04:30pm 24.3 23.6 18.2 68 3.8 ESE 19 28 10 15 1013.9 1013.8 0.0
17/04:00pm 24.5 24.5 18.2 68 4.0 SE 15 28 8 15 1014.1 1014.0 0.0
17/03:30pm 25.5 25.2 18.2 64 4.6 SE 17 24 9 13 1013.9 1013.8 0.0
17/03:00pm 25.5 25.5 18.9 67 4.2 ESE 17 26 9 14 1014.0 1013.9 0.0
17/02:30pm 24.8 23.6 17.5 64 4.6 ESE 20 28 11 15 1014.3 1014.2 0.0
17/02:00pm 26.2 25.3 18.1 61 5.1 ESE 20 30 11 16 1014.4 1014.3 0.0
17/01:30pm 25.8 24.4 18.7 65 4.5 ESE 24 30 13 16 1014.4 1014.3 0.0
17/01:00pm 25.4 24.3 17.8 62 4.8 ESE 20 28 11 15 1014.8 1014.7 0.0
17/12:30pm 25.7 24.7 17.9 62 4.9 SE 20 35 11 19 1015.1 1015.0 0.0
17/12:00pm 26.0 25.0 18.9 65 4.5 ESE 22 32 12 17 1015.5 1015.4 0.0
17/11:30am 25.7 24.9 18.4 64 4.6 SE 20 26 11 14 1015.9 1015.8 0.0
17/11:00am 25.7 24.8 18.1 63 4.8 ESE 20 30 11 16 1015.9 1015.8 0.0
17/10:30am 25.2 24.5 18.2 65 4.4 ESE 19 30 10 16 1016.5 1016.4 0.0
17/10:00am 25.1 24.2 18.3 66 4.3 ESE 20 28 11 15 1016.6 1016.5 0.0
17/09:30am 24.4 23.9 18.6 70 3.7 SE 19 28 10 15 1016.8 1016.7 0.0
17/09:00am 24.9 24.7 18.6 68 4.0 SE 17 24 9 13 1016.6 1016.5 3.4
17/08:30am 23.9 23.3 18.5 72 3.4 SE 19 26 10 14 1016.4 1016.3 3.4
17/08:00am 23.7 23.4 19.2 76 2.9 SSE 19 28 10 15 1016.4 1016.3 3.4
17/07:30am 22.8 23.8 19.4 81 2.2 S 13 22 7 12 1016.6 1016.5 3.4
17/07:00am 21.1 23.0 19.7 92 0.9 SSW 9 15 5 8 1016.3 1016.2 3.4
17/06:30am 19.7 21.3 19.2 97 0.3 SSW 9 11 5 6 1016.3 1016.2 3.4
17/06:00am 19.0 20.4 18.7 98 0.2 SSW 9 11 5 6 1015.9 1015.8 3.4
17/05:30am 18.8 20.0 18.3 97 0.3 SSW 9 13 5 7 1015.6 1015.5 3.4
17/05:00am 18.7 19.8 18.0 96 0.4 SSW 9 13 5 7 1015.0 1014.9 3.4
17/04:30am 18.8 19.6 18.1 96 0.4 SSW 11 15 6 8 1014.9 1014.8 3.4
17/04:00am 18.9 19.7 18.2 96 0.4 SSW 11 15 6 8 1014.8 1014.7 3.4
17/03:30am 19.0 19.1 18.3 96 0.4 SSW 15 19 8 10 1014.5 1014.4 3.4
17/03:00am 19.0 20.2 18.2 95 0.5 SW 9 15 5 8 1014.7 1014.6 3.0
17/02:30am 19.0 20.0 17.8 93 0.7 SW 9 13 5 7 1014.7 1014.6 3.0
17/02:00am 19.3 20.4 18.0 92 0.8 SW 9 13 5 7 1014.8 1014.7 3.0
17/01:30am 19.7 20.9 18.2 91 0.9 SW 9 11 5 6 1015.1 1015.0 3.0
17/01:00am 19.7 21.1 17.8 89 1.2 SW 7 7 4 4 1015.2 1015.1 3.0
17/12:30am 20.3 21.4 18.1 87 1.4 SSE 9 15 5 8 1015.0 1014.9 3.0
17/12:00am 20.7 21.8 18.1 85 1.6 SE 9 17 5 9 1015.1 1015.0 3.0
 
Date/Time
EST
Temp
°C
App
Temp
°C
Dew
Point
°C
Rel
Hum
%
Delta-T
°C
Wind Press
QNH
hPa
Press
MSL
hPa
Rain since
9am
mm
Dir  Spd
km/h
Gust
km/h
Spd
kts
Gust
kts
16/11:30pm 21.0 21.4 18.2 84 1.7 SSE 13 19 7 10 1015.0 1014.9 3.0
16/11:00pm 21.1 21.6 18.3 84 1.7 SSE 13 20 7 11 1015.4 1015.3 3.0
16/10:30pm 21.1 21.3 18.5 85 1.6 SSE 15 22 8 12 1015.5 1015.4 3.0
16/10:00pm 21.1 20.9 18.5 85 1.6 SE 17 22 9 12 1015.3 1015.2 3.0
16/09:30pm 21.1 21.4 18.7 86 1.5 SSE 15 28 8 15 1015.5 1015.4 3.0
16/09:00pm 21.0 20.9 18.8 87 1.4 SE 17 28 9 15 1015.5 1015.4 3.0
16/08:30pm 20.9 22.1 19.0 89 1.2 SSE 11 20 6 11 1015.9 1015.8 3.0
16/08:00pm 20.8 21.4 18.7 88 1.3 SSE 13 17 7 9 1015.7 1015.6 3.0
16/07:30pm 20.9 22.1 18.3 85 1.6 SSE 9 15 5 8 1015.7 1015.6 3.0
16/07:00pm 21.5 21.9 18.1 81 2.1 SE 13 20 7 11 1015.7 1015.6 3.0
16/06:30pm 21.6 22.2 18.6 83 1.9 SE 13 20 7 11 1015.0 1014.9 3.0
16/06:00pm 21.7 22.3 18.5 82 2.0 SSE 13 20 7 11 1014.7 1014.6 3.0
16/05:30pm 22.4 22.7 18.8 80 2.3 SSE 15 24 8 13 1014.4 1014.3 3.0
16/05:00pm 22.5 22.3 19.3 82 2.0 ESE 19 28 10 15 1014.1 1014.0 3.0
16/04:30pm 23.5 22.8 18.6 74 3.1 SE 20 30 11 16 1013.6 1013.5 3.0
16/04:00pm 23.4 23.6 19.3 78 2.6 SE 17 26 9 14 1013.4 1013.3 3.0
16/03:30pm 22.2 22.6 19.9 87 1.5 SSE 17 28 9 15 1013.6 1013.5 3.0
16/03:00pm 22.4 22.4 19.8 85 1.7 SE 19 30 10 16 1013.8 1013.7 2.6
16/02:30pm 21.9 21.8 19.5 86 1.5 SE 19 35 10 19 1013.9 1013.8 2.2
16/02:27pm 22.2 22.5 19.7 86 1.6 SE 17 35 9 19 1013.9 1013.8 2.0
16/02:13pm 21.8 21.3 19.0 84 1.8 SE 20 35 11 19 1014.0 1013.9 2.0
16/02:00pm 23.9 24.9 20.2 80 2.4 S 15 20 8 11 1013.9 1013.8 0.8
16/01:39pm 22.2 23.1 19.2 83 1.9 SE 13 19 7 10 1014.1 1014.0 0.8
16/01:30pm 21.7 22.1 19.1 85 1.6 SE 15 32 8 17 1014.4 1014.3 0.8
16/01:21pm 21.6 19.9 18.2 81 2.1 SE 24 39 13 21 1014.4 1014.3 0.6
16/01:00pm 26.0 25.3 18.2 62 4.9 SE 19 30 10 16 1014.2 1014.1 0.2
16/12:30pm 24.0 24.3 19.5 76 2.9 SSE 17 26 9 14 1014.5 1014.4 0.2
16/12:00pm 25.0 24.4 18.4 66 4.2 SSE 19 32 10 17 1014.6 1014.5 0.2
16/11:30am 24.3 23.2 18.7 71 3.6 SSE 22 35 12 19 1014.9 1014.8 0.2
16/11:00am 25.5 25.1 18.9 67 4.2 SE 19 32 10 17 1014.9 1014.8 0.2
16/10:30am 25.0 24.3 18.7 68 4.0 SE 20 30 11 16 1015.0 1014.9 0.2
16/10:00am 25.2 25.2 18.2 65 4.4 SE 15 22 8 12 1015.3 1015.2 0.2
16/09:30am 24.6 25.5 19.2 72 3.5 SE 13 20 7 11 1015.2 1015.1 0.2
16/09:00am 24.3 24.5 18.5 70 3.7 SE 15 26 8 14 1015.3 1015.2 3.6
16/08:30am 23.1 22.0 17.3 70 3.6 SSE 19 28 10 15 1015.1 1015.0 3.6
16/08:00am 23.2 23.8 18.5 75 3.0 SSE 13 24 7 13 1015.0 1014.9 3.6
16/07:30am 21.9 22.7 19.1 84 1.8 S 13 20 7 11 1014.8 1014.7 3.6
16/07:00am 20.7 22.2 19.7 94 0.6 SSW 11 15 6 8 1014.5 1014.4 3.6
16/06:30am 19.6 20.4 19.1 97 0.3 SSW 13 17 7 9 1014.3 1014.2 3.6
16/06:20am 19.3 20.4 18.8 97 0.3 SW 11 15 6 8 1014.1 1014.0 3.6
16/06:05am 19.1 20.2 18.8 98 0.2 SW 11 15 6 8 1014.0 1013.9 3.6
16/06:00am 19.0 20.0 18.7 98 0.2 SW 11 13 6 7 1013.8 1013.7 3.6
16/05:30am 18.7 20.0 18.4 98 0.2 SW 9 11 5 6 1013.3 1013.2 3.6
16/05:03am 18.6 19.5 18.3 98 0.2 SSW 11 15 6 8 1012.9 1012.8 3.6
16/05:00am 18.6 19.5 18.3 98 0.2 SSW 11 15 6 8 1012.9 1012.8 3.6
16/04:30am 18.8 20.1 18.5 98 0.2 SSW 9 13 5 7 1012.5 1012.4 3.6
16/04:15am 18.7 19.9 18.2 97 0.3 SSW 9 15 5 8 1012.3 1012.2 3.6
16/04:00am 18.7 19.5 18.2 97 0.3 SW 11 17 6 9 1012.3 1012.2 3.6
16/03:30am 18.8 19.7 18.3 97 0.3 SW 11 15 6 8 1012.0 1011.9 3.6
16/03:09am 18.9 19.4 18.4 97 0.3 SSW 13 17 7 9 1011.7 1011.6 3.6
16/03:00am 19.0 19.9 18.5 97 0.3 SSW 11 17 6 9 1011.8 1011.7 3.6
16/02:30am 19.2 20.1 18.5 96 0.4 SSW 11 17 6 9 1011.9 1011.8 3.6
16/02:00am 19.2 20.1 18.5 96 0.4 SW 11 17 6 9 1012.2 1012.1 3.6
16/01:30am 19.3 20.6 18.5 95 0.5 SSW 9 13 5 7 1012.2 1012.1 3.4
16/01:00am 19.5 20.1 18.5 94 0.6 SSW 13 20 7 11 1012.1 1012.0 3.4
16/12:30am 19.6 19.4 18.6 94 0.6 SSW 17 24 9 13 1012.4 1012.3 3.4
16/12:29am 19.6 19.4 18.6 94 0.6 SSW 17 24 9 13 1012.4 1012.3 3.4
16/12:24am 19.6 19.4 18.6 94 0.6 SSW 17 24 9 13 1012.5 1012.4 3.4
16/12:05am 19.6 20.2 18.6 94 0.6 S 13 19 7 10 1012.6 1012.5 3.2
16/12:00am 19.6 19.4 18.4 93 0.7 S 17 28 9 15 1012.6 1012.5 1.8
 
Date/Time
EST
Temp
°C
App
Temp
°C
Dew
Point
°C
Rel
Hum
%
Delta-T
°C
Wind Press
QNH
hPa
Press
MSL
hPa
Rain since
9am
mm
Dir  Spd
km/h
Gust
km/h
Spd
kts
Gust
kts
15/11:30pm 19.2 18.4 17.9 92 0.8 SSW 19 30 10 16 1012.9 1012.8 1.6
15/11:00pm 19.6 16.4 17.2 86 1.5 SSW 30 44 16 24 1013.2 1013.1 1.4
15/10:58pm 19.7 16.5 17.3 86 1.5 SSW 30 44 16 24 1013.2 1013.1 1.4
15/10:30pm 20.0 17.8 17.0 83 1.8 SW 24 43 13 23 1013.2 1013.1 1.4
15/10:00pm 19.5 18.4 17.3 87 1.3 SW 19 30 10 16 1013.8 1013.7 1.4
15/09:30pm 19.3 18.2 17.3 88 1.2 SW 19 28 10 15 1014.3 1014.2 1.4
15/09:00pm 19.4 18.3 17.2 87 1.3 SSW 19 28 10 15 1014.5 1014.4 1.4
15/08:31pm 19.3 18.1 17.1 87 1.3 SSW 19 26 10 14 1014.7 1014.6 1.4
15/08:30pm 19.3 18.1 17.1 87 1.3 SSW 19 26 10 14 1014.7 1014.6 1.4
15/08:07pm 19.5 18.3 17.1 86 1.5 SSW 19 30 10 16 1014.7 1014.6 1.4
15/08:00pm 19.5 18.3 17.1 86 1.5 SSW 19 30 10 16 1014.7 1014.6 1.4
15/07:30pm 19.6 18.8 17.2 86 1.5 SSW 17 28 9 15 1014.5 1014.4 1.4
15/07:00pm 19.7 20.3 17.8 89 1.2 SSW 11 17 6 9 1014.3 1014.2 1.4
15/06:30pm 19.7 20.0 17.8 89 1.2 S 13 20 7 11 1014.1 1014.0 1.4
15/06:12pm 19.6 19.1 17.7 89 1.2 S 17 30 9 16 1014.3 1014.2 1.4
15/06:01pm 19.7 18.7 18.0 90 1.0 S 20 32 11 17 1014.4 1014.3 1.4
15/06:00pm 19.7 18.7 18.0 90 1.0 S 20 32 11 17 1014.3 1014.2 1.4
15/05:30pm 20.8 19.1 17.2 80 2.2 SSE 22 33 12 18 1013.9 1013.8 1.4
15/05:00pm 22.1 20.6 16.8 72 3.2 S 20 32 11 17 1013.5 1013.4 1.4
15/04:30pm 24.0 22.7 17.3 66 4.2 S 20 41 11 22 1013.1 1013.0 1.4
15/04:00pm 24.1 22.3 16.1 61 4.9 S 20 41 11 22 1012.8 1012.7 1.4
15/03:30pm 24.2 23.2 16.5 62 4.7 S 17 28 9 15 1012.9 1012.8 1.4
15/03:00pm 24.3 23.1 17.1 64 4.5 S 19 28 10 15 1012.7 1012.6 1.4
15/02:30pm 23.6 22.1 16.4 64 4.4 S 19 30 10 16 1012.9 1012.8 1.4
15/02:00pm 23.3 21.8 16.4 65 4.2 SE 19 28 10 15 1013.1 1013.0 1.4
15/01:30pm 23.2 22.2 16.7 67 4.0 SSE 17 32 9 17 1013.1 1013.0 1.2
15/01:00pm 22.8 22.5 18.3 76 2.8 S 17 32 9 17 1013.5 1013.4 1.2
15/12:30pm 21.1 20.9 18.5 85 1.6 SSE 17 28 9 15 1013.9 1013.8 1.2
15/12:17pm 20.3 18.4 17.7 85 1.6 SSE 24 33 13 18 1014.1 1014.0 1.2
15/12:00pm 22.3 21.6 18.3 78 2.5 S 19 32 10 17 1014.2 1014.1 0.4
15/11:30am 20.9 20.4 17.9 83 1.9 S 17 32 9 17 1014.8 1014.7 0.2
15/11:00am 22.5 21.2 17.2 72 3.3 S 20 37 11 20 1014.9 1014.8 0.2
15/10:30am 21.6 19.8 17.0 75 2.8 S 22 37 12 20 1015.0 1014.9 0.2
15/10:00am 21.1 19.8 16.9 77 2.6 S 19 32 10 17 1015.1 1015.0 0.2
15/09:30am 21.9 21.1 17.1 74 2.9 S 17 24 9 13 1015.2 1015.1 0.2
15/09:16am 21.5 20.2 16.9 75 2.8 SSW 19 30 10 16 1015.3 1015.2 0.0
15/09:00am 21.9 20.9 17.5 76 2.7 S 19 32 10 17 1015.2 1015.1 5.6
15/08:30am 21.3 20.0 17.3 78 2.5 SSW 20 32 11 17 1014.9 1014.8 5.6
15/08:20am 21.0 19.9 17.4 80 2.2 S 19 30 10 16 1014.9 1014.8 5.6
15/08:01am 20.4 19.9 17.8 85 1.6 SSW 17 24 9 13 1014.9 1014.8 5.6
15/08:00am 20.2 19.5 17.4 84 1.7 SSW 17 28 9 15 1014.9 1014.8 5.6
15/07:41am 19.6 18.6 17.6 88 1.2 SSW 19 26 10 14 1014.9 1014.8 5.6
15/07:30am 19.1 18.5 17.6 91 0.9 SSW 17 28 9 15 1014.9 1014.8 5.6
15/07:03am 18.2 18.2 17.2 94 0.6 SSW 13 22 7 12 1014.8 1014.7 5.6
15/07:00am 18.2 17.8 17.2 94 0.6 SSW 15 26 8 14 1014.9 1014.8 5.6
15/06:30am 17.8 17.3 17.0 95 0.5 SSW 15 20 8 11 1014.8 1014.7 5.6
15/06:00am 17.6 17.1 16.8 95 0.5 SW 15 24 8 13 1014.6 1014.5 5.6
15/05:36am 17.7 18.0 16.9 95 0.5 SSW 11 15 6 8 1014.2 1014.1 5.6
15/05:30am 17.6 17.8 16.8 95 0.5 SSW 11 15 6 8 1014.0 1013.9 5.6
15/05:09am 17.6 17.4 16.8 95 0.5 SSW 13 19 7 10 1013.9 1013.8 5.6
15/05:00am 17.6 17.0 16.6 94 0.6 SSW 15 20 8 11 1014.0 1013.9 5.6
15/04:30am 17.7 16.7 16.7 94 0.6 SSW 17 22 9 12 1013.8 1013.7 5.6

Other Formats:

Comma delimited format used in spreadsheet applications
http://www.bom.gov.au/fwo/IDQ60801/IDQ60801.95565.axf

JavaScript Object Notation format (JSON) in row-major order
http://www.bom.gov.au/fwo/IDQ60801/IDQ60801.95565.json